Time;durP1;ratioP1;P1;durP2;ratioP2;P2;SDS_P1;SDS_P2;PMS_P1;PMS_P2;Temp;Humidity;BMP_temperature;BMP_pressure;BME280_temperature;BME280_humidity;BME280_pressure;Samples;Min_cycle;Max_cycle;Signal;HPM_P1;HPM_P2
2022/05/03 00:00:05;;;;;;;14.10;10.93;;;13.60;99.90;;;;;;5071126;28;20220;-52
2022/05/03 00:02:45;;;;;;;12.83;10.53;;;13.60;99.90;;;;;;5070882;28;20274;-52
2022/05/03 00:05:23;;;;;;;11.57;10.13;;;13.60;99.90;;;;;;5070919;28;20208;-52
2022/05/03 00:07:56;;;;;;;17.53;11.27;;;13.60;99.90;;;;;;5071252;28;20188;-52
2022/05/03 00:10:35;;;;;;;15.73;10.93;;;13.60;99.90;;;;;;5053780;28;20251;-52
2022/05/03 00:13:07;;;;;;;12.37;10.80;;;13.60;99.90;;;;;;5051237;28;20198;-52
2022/05/03 00:15:37;;;;;;;12.90;10.70;;;13.50;99.90;;;;;;5051234;28;20209;-52
2022/05/03 00:18:08;;;;;;;14.80;10.57;;;13.60;99.90;;;;;;5050902;28;20201;-52
2022/05/03 00:20:36;;;;;;;13.93;10.33;;;13.60;99.90;;;;;;5056505;28;20225;-52
2022/05/03 00:23:05;;;;;;;12.13;10.80;;;13.60;99.90;;;;;;5070448;28;20209;-52
2022/05/03 00:25:35;;;;;;;13.07;10.50;;;13.50;99.90;;;;;;5070762;28;20867;-52
2022/05/03 00:28:03;;;;;;;13.17;10.40;;;13.50;99.90;;;;;;5070973;28;20205;-52
2022/05/03 00:30:32;;;;;;;12.37;9.90;;;13.50;99.90;;;;;;5071225;28;20209;-52
2022/05/03 00:33:02;;;;;;;12.17;10.40;;;13.50;99.90;;;;;;5070566;28;20213;-52
2022/05/03 00:35:30;;;;;;;16.87;11.03;;;13.50;99.90;;;;;;5070749;28;20259;-52
2022/05/03 00:37:58;;;;;;;11.10;9.90;;;13.50;99.90;;;;;;5070530;28;20208;-52
2022/05/03 00:40:27;;;;;;;11.47;9.83;;;13.50;99.90;;;;;;5070801;28;20229;-52
2022/05/03 00:43:03;;;;;;;13.40;10.63;;;13.40;99.90;;;;;;5070456;28;20682;-52
2022/05/03 00:45:39;;;;;;;12.03;10.63;;;13.40;99.90;;;;;;5070361;28;20204;-52
2022/05/03 00:48:22;;;;;;;11.70;9.60;;;13.50;99.90;;;;;;5070896;28;20227;-52
2022/05/03 00:50:59;;;;;;;11.33;10.10;;;13.40;99.90;;;;;;5070908;28;20205;-52
2022/05/03 00:53:33;;;;;;;11.90;10.37;;;13.40;99.90;;;;;;5070412;28;20189;-52
2022/05/03 00:56:30;;;;;;;14.03;10.03;;;13.30;99.90;;;;;;5070443;28;20229;-52
2022/05/03 00:59:17;;;;;;;14.57;9.70;;;13.30;99.90;;;;;;5073416;28;20201;-52
2022/05/03 01:01:56;;;;;;;11.57;9.90;;;13.30;99.90;;;;;;5074561;28;20204;-52
2022/05/03 01:04:30;;;;;;;12.40;9.93;;;13.30;99.90;;;;;;5074790;28;20208;-52
2022/05/03 01:07:14;;;;;;;12.23;9.70;;;13.20;99.90;;;;;;5074549;28;20270;-52
2022/05/03 01:09:44;;;;;;;12.73;10.97;;;13.20;99.90;;;;;;5074351;28;20205;-52
2022/05/03 01:12:26;;;;;;;14.20;10.37;;;13.20;99.90;;;;;;5074547;28;20287;-52
2022/05/03 01:15:18;;;;;;;11.33;9.83;;;13.20;99.90;;;;;;5074772;28;20216;-52
2022/05/03 01:17:52;;;;;;;12.97;10.17;;;13.20;99.90;;;;;;5074118;28;20224;-52
2022/05/03 01:20:31;;;;;;;11.33;10.13;;;13.10;99.90;;;;;;5074283;28;20649;-52
2022/05/03 01:23:33;;;;;;;11.93;10.10;;;13.10;99.90;;;;;;5073603;28;20204;-52
2022/05/03 01:26:40;;;;;;;11.50;10.30;;;13.10;99.90;;;;;;5074291;28;20229;-52
2022/05/03 01:29:24;;;;;;;12.30;11.00;;;13.10;99.90;;;;;;5074634;28;20258;-52
2022/05/03 01:31:57;;;;;;;11.83;10.63;;;13.10;99.90;;;;;;5073401;28;20213;-52
2022/05/03 01:34:27;;;;;;;13.03;11.63;;;13.10;99.90;;;;;;5074248;28;20196;-51
2022/05/03 01:37:12;;;;;;;13.43;10.43;;;13.10;99.90;;;;;;5073269;28;20946;-52
2022/05/03 01:39:53;;;;;;;14.37;10.63;;;13.10;99.90;;;;;;5074213;28;20213;-52
2022/05/03 01:42:29;;;;;;;13.97;9.90;;;13.10;99.90;;;;;;5073892;28;20184;-52
2022/05/03 01:45:04;;;;;;;14.40;10.50;;;13.10;99.90;;;;;;5073769;28;20196;-52
2022/05/03 01:47:43;;;;;;;12.23;10.63;;;13.10;99.90;;;;;;5073575;28;20615;-52
2022/05/03 01:50:19;;;;;;;13.00;10.63;;;13.00;99.90;;;;;;5074300;28;20212;-51
2022/05/03 01:53:15;;;;;;;12.83;10.43;;;13.00;99.90;;;;;;5073275;28;20192;-52
2022/05/03 01:56:22;;;;;;;11.50;10.30;;;13.00;99.90;;;;;;5070828;28;20220;-51
2022/05/03 01:59:05;;;;;;;13.50;10.97;;;13.00;99.90;;;;;;5065909;28;20255;-51
2022/05/03 02:01:50;;;;;;;13.93;11.10;;;12.90;99.90;;;;;;5073841;28;20229;-52
2022/05/03 02:04:45;;;;;;;14.50;10.67;;;12.90;99.90;;;;;;5073643;28;20205;-51
2022/05/03 02:07:25;;;;;;;12.53;10.93;;;12.90;99.90;;;;;;5073418;28;20282;-52
2022/05/03 02:10:05;;;;;;;12.97;10.50;;;12.90;99.90;;;;;;5066709;28;20342;-52
2022/05/03 02:12:34;;;;;;;12.20;10.50;;;12.90;99.90;;;;;;5073174;28;20235;-52
2022/05/03 02:15:05;;;;;;;14.13;10.87;;;12.90;99.90;;;;;;5073440;28;20246;-51
2022/05/03 02:17:53;;;;;;;13.27;10.63;;;12.80;99.90;;;;;;5053739;28;20601;-52
2022/05/03 02:20:42;;;;;;;12.93;10.63;;;12.80;99.90;;;;;;5053508;28;20237;-52
2022/05/03 02:23:21;;;;;;;14.30;11.90;;;12.80;99.90;;;;;;5053174;28;20719;-52
2022/05/03 02:26:18;;;;;;;14.17;11.60;;;12.70;99.90;;;;;;5053540;28;20279;-51
2022/05/03 02:28:52;;;;;;;13.83;11.23;;;12.70;99.90;;;;;;5053711;28;20593;-51
2022/05/03 02:31:28;;;;;;;17.27;11.77;;;12.60;99.90;;;;;;5053167;28;20236;-52
2022/05/03 02:34:08;;;;;;;13.30;11.83;;;12.60;99.90;;;;;;5053054;28;20194;-52
2022/05/03 02:36:47;;;;;;;12.50;10.47;;;12.60;99.90;;;;;;5053263;28;20228;-52
2022/05/03 02:39:21;;;;;;;13.57;11.10;;;12.60;99.90;;;;;;5053060;28;20209;-52
2022/05/03 02:41:51;;;;;;;12.57;10.97;;;12.50;99.90;;;;;;5052827;28;20222;-52
2022/05/03 02:44:21;;;;;;;11.97;10.77;;;12.50;99.90;;;;;;5053288;28;20236;-52
2022/05/03 02:46:58;;;;;;;13.93;11.10;;;12.50;99.90;;;;;;5072074;28;20398;-52
2022/05/03 02:49:51;;;;;;;14.73;12.30;;;12.50;99.90;;;;;;5073228;28;20259;-52
2022/05/03 02:52:28;;;;;;;16.07;12.67;;;12.50;99.90;;;;;;5072660;28;20200;-52
2022/05/03 02:55:06;;;;;;;17.00;12.90;;;12.40;99.90;;;;;;5072845;28;20637;-52
2022/05/03 02:57:51;;;;;;;15.33;12.57;;;12.40;99.90;;;;;;5072480;28;20747;-52
2022/05/03 03:03:37;;;;;;;14.23;11.40;;;12.30;99.90;;;;;;5071634;28;20204;-52
2022/05/03 03:06:13;;;;;;;13.33;11.47;;;12.30;99.90;;;;;;5033101;28;20241;-52
2022/05/03 03:08:45;;;;;;;13.13;11.80;;;12.30;99.90;;;;;;5055678;28;20645;-52
2022/05/03 03:11:22;;;;;;;12.93;10.97;;;12.30;99.90;;;;;;5072518;28;20251;-52
2022/05/03 03:14:03;;;;;;;13.33;10.70;;;12.30;99.90;;;;;;5071997;28;20584;-52
2022/05/03 03:16:32;;;;;;;14.17;11.23;;;12.30;99.90;;;;;;5072391;28;20237;-52
2022/05/03 03:19:14;;;;;;;13.67;11.20;;;12.20;99.90;;;;;;5072542;28;20213;-52
2022/05/03 03:21:48;;;;;;;12.57;11.27;;;12.20;99.90;;;;;;5071092;28;20285;-52
2022/05/03 03:24:18;;;;;;;13.17;10.77;;;12.10;99.90;;;;;;5072372;28;20197;-52
2022/05/03 03:26:48;;;;;;;14.53;11.17;;;12.10;99.90;;;;;;5071497;28;20864;-52
2022/05/03 03:29:18;;;;;;;15.20;11.20;;;12.10;99.90;;;;;;5072037;28;20223;-51
2022/05/03 03:31:49;;;;;;;14.37;12.07;;;12.10;99.90;;;;;;5071687;28;20666;-51
2022/05/03 03:34:19;;;;;;;13.90;12.17;;;12.10;99.90;;;;;;5072011;28;20563;-52
2022/05/03 03:36:50;;;;;;;14.57;12.47;;;12.00;99.90;;;;;;5071915;28;20228;-52
2022/05/03 03:39:18;;;;;;;14.83;12.57;;;12.00;99.90;;;;;;5071573;28;20205;-51
2022/05/03 03:41:47;;;;;;;14.47;12.50;;;12.00;99.90;;;;;;5071399;28;20229;-52
2022/05/03 03:44:16;;;;;;;14.77;12.93;;;11.90;99.90;;;;;;5071839;28;20213;-52
2022/05/03 03:46:44;;;;;;;15.00;12.10;;;11.90;99.90;;;;;;5071522;28;20221;-52
2022/05/03 03:49:12;;;;;;;16.17;12.07;;;11.90;99.90;;;;;;5071577;28;20694;-52
2022/05/03 03:51:40;;;;;;;14.00;11.53;;;11.80;99.90;;;;;;5071652;28;20658;-52
2022/05/03 03:54:10;;;;;;;13.60;11.80;;;11.80;99.90;;;;;;5071352;28;20626;-52
2022/05/03 03:56:39;;;;;;;17.27;12.30;;;11.80;99.90;;;;;;5071460;28;20225;-52
2022/05/03 03:59:08;;;;;;;14.27;12.23;;;11.70;99.90;;;;;;5070307;28;20201;-52
2022/05/03 04:01:36;;;;;;;14.37;11.57;;;11.70;99.90;;;;;;5071139;28;20251;-52
2022/05/03 04:04:05;;;;;;;15.33;12.13;;;11.70;99.90;;;;;;5070964;28;20216;-52
2022/05/03 04:06:33;;;;;;;12.20;10.90;;;11.80;99.90;;;;;;5070810;28;20258;-52
2022/05/03 04:09:01;;;;;;;15.00;11.40;;;11.80;99.90;;;;;;5071217;28;20263;-52
2022/05/03 04:11:42;;;;;;;16.73;12.07;;;11.80;99.90;;;;;;5071134;28;20197;-51
2022/05/03 04:14:10;;;;;;;16.43;13.33;;;11.80;99.90;;;;;;5071491;28;20220;-52
2022/05/03 04:16:39;;;;;;;15.80;12.23;;;11.90;99.90;;;;;;5071110;28;20232;-52
2022/05/03 04:19:07;;;;;;;15.13;12.93;;;11.80;99.90;;;;;;5071222;28;20229;-51
2022/05/03 04:21:36;;;;;;;17.30;12.30;;;11.90;99.90;;;;;;5071314;28;20221;-51
2022/05/03 04:24:04;;;;;;;14.83;11.90;;;11.90;99.90;;;;;;5070544;28;20239;-52
2022/05/03 04:26:34;;;;;;;14.37;11.93;;;11.90;99.90;;;;;;5071110;28;20228;-51
2022/05/03 04:29:03;;;;;;;13.33;11.93;;;11.90;99.90;;;;;;5071170;28;20246;-52
2022/05/03 04:31:34;;;;;;;14.50;11.90;;;11.90;99.90;;;;;;5071158;28;20566;-51
2022/05/03 04:34:03;;;;;;;14.70;11.83;;;11.90;99.90;;;;;;5069262;28;20219;-52
2022/05/03 04:36:32;;;;;;;13.17;11.17;;;12.00;99.90;;;;;;5070741;28;20259;-52
2022/05/03 04:39:01;;;;;;;14.83;11.60;;;12.00;99.90;;;;;;5070993;28;20212;-51
2022/05/03 04:41:30;;;;;;;12.17;10.77;;;12.00;99.90;;;;;;5070998;28;20251;-52
2022/05/03 04:43:59;;;;;;;12.70;11.03;;;12.10;99.90;;;;;;5070268;28;20213;-52
2022/05/03 04:46:27;;;;;;;13.20;11.20;;;12.20;99.90;;;;;;5059675;28;20228;-52
2022/05/03 04:48:55;;;;;;;13.23;10.63;;;12.30;99.90;;;;;;5071170;28;20209;-52
2022/05/03 04:51:25;;;;;;;11.67;10.47;;;12.40;99.90;;;;;;5070560;28;20678;-51
2022/05/03 04:53:53;;;;;;;11.97;10.70;;;12.50;99.90;;;;;;5070494;28;20209;-52
2022/05/03 04:56:24;;;;;;;14.27;11.30;;;12.40;99.90;;;;;;5070776;28;20286;-51
2022/05/03 04:58:55;;;;;;;14.80;10.90;;;12.40;99.90;;;;;;5070848;28;20208;-52
2022/05/03 05:01:25;;;;;;;15.87;12.10;;;12.30;99.90;;;;;;5069744;28;20190;-52
2022/05/03 05:03:53;;;;;;;13.43;10.77;;;12.40;99.90;;;;;;5070381;28;20201;-52
2022/05/03 05:06:21;;;;;;;12.63;10.87;;;12.40;99.90;;;;;;5070341;28;20241;-51
2022/05/03 05:08:49;;;;;;;13.37;10.43;;;12.40;99.90;;;;;;5070737;28;20250;-52
2022/05/03 05:11:17;;;;;;;15.40;10.60;;;12.40;99.90;;;;;;5071153;28;20213;-52
2022/05/03 05:13:46;;;;;;;13.63;10.50;;;12.40;99.90;;;;;;5069932;28;20255;-51
2022/05/03 05:16:14;;;;;;;11.40;9.60;;;12.40;99.90;;;;;;5071053;28;20228;-52
2022/05/03 05:18:44;;;;;;;11.67;9.80;;;12.50;99.90;;;;;;5071391;28;20305;-51
2022/05/03 05:21:13;;;;;;;14.30;9.73;;;12.50;99.90;;;;;;5071422;28;20255;-51
2022/05/03 05:23:41;;;;;;;12.27;9.53;;;12.50;99.90;;;;;;5069736;28;20282;-52
2022/05/03 05:26:09;;;;;;;11.43;9.70;;;12.60;99.90;;;;;;5070470;28;20274;-53
2022/05/03 05:28:37;;;;;;;12.50;9.90;;;12.60;99.90;;;;;;5070453;28;20227;-52
2022/05/03 05:31:05;;;;;;;11.87;9.63;;;12.70;99.90;;;;;;5070364;28;20568;-52
2022/05/03 05:33:33;;;;;;;11.03;9.33;;;12.70;99.90;;;;;;5069908;28;20668;-52
2022/05/03 05:36:03;;;;;;;10.43;9.43;;;12.80;99.90;;;;;;5070240;28;20229;-52
2022/05/03 05:38:31;;;;;;;11.57;8.80;;;12.80;99.90;;;;;;5070204;28;20205;-52
2022/05/03 05:40:59;;;;;;;11.27;9.40;;;12.90;99.90;;;;;;5070156;28;20629;-52
2022/05/03 05:43:27;;;;;;;11.70;9.33;;;13.00;99.90;;;;;;5049860;28;20226;-51
2022/05/03 05:45:55;;;;;;;9.70;8.70;;;13.00;99.90;;;;;;5065342;28;20290;-52
2022/05/03 05:48:23;;;;;;;12.87;9.17;;;13.00;99.90;;;;;;5073951;28;20235;-52
2022/05/03 05:50:51;;;;;;;10.83;9.20;;;13.20;99.90;;;;;;5073922;28;20205;-51
2022/05/03 05:53:32;;;;;;;9.97;8.67;;;13.30;99.90;;;;;;5073395;28;20255;-52
2022/05/03 05:56:01;;;;;;;10.40;9.00;;;13.30;99.90;;;;;;5073996;28;20278;-52
2022/05/03 05:58:29;;;;;;;11.57;8.23;;;13.50;99.90;;;;;;5073777;28;20208;-52
2022/05/03 06:00:58;;;;;;;9.10;8.20;;;13.70;99.90;;;;;;5072732;28;20205;-52
2022/05/03 06:03:28;;;;;;;9.13;8.13;;;13.70;99.90;;;;;;5073116;28;20595;-52
2022/05/03 06:05:57;;;;;;;9.53;8.50;;;13.70;99.90;;;;;;5073351;28;20244;-52
2022/05/03 06:08:27;;;;;;;10.53;8.33;;;13.70;99.90;;;;;;5073322;28;20201;-52
2022/05/03 06:10:58;;;;;;;9.67;8.40;;;13.60;99.90;;;;;;5073790;28;20200;-52
2022/05/03 06:13:27;;;;;;;10.53;8.40;;;13.60;99.90;;;;;;5073138;28;20233;-52
2022/05/03 06:15:55;;;;;;;9.90;8.47;;;13.60;99.90;;;;;;5073872;28;20225;-52
2022/05/03 06:18:23;;;;;;;9.17;7.53;;;13.80;99.90;;;;;;5073129;28;20756;-52
2022/05/03 06:20:51;;;;;;;11.97;8.30;;;14.10;99.90;;;;;;5073719;28;20353;-52
2022/05/03 06:23:20;;;;;;;12.50;8.27;;;14.00;99.90;;;;;;5072964;28;20270;-52
2022/05/03 06:25:50;;;;;;;11.40;7.90;;;13.90;99.90;;;;;;5059502;28;20737;-52
2022/05/03 06:28:18;;;;;;;9.63;7.17;;;13.80;99.90;;;;;;5073126;28;20205;-52
2022/05/03 06:30:46;;;;;;;8.90;8.00;;;14.50;99.90;;;;;;5072656;28;20693;-52
2022/05/03 06:33:15;;;;;;;8.40;7.20;;;15.50;99.90;;;;;;5066286;28;20208;-52
2022/05/03 06:35:43;;;;;;;8.43;7.38;;;16.30;99.90;;;;;;5069444;28;20213;-52
2022/05/03 06:38:11;;;;;;;9.52;7.68;;;17.00;99.90;;;;;;5072719;28;20681;-53
2022/05/03 06:40:39;;;;;;;9.70;7.38;;;17.20;99.90;;;;;;5072929;28;20205;-50
2022/05/03 06:43:08;;;;;;;9.02;7.18;;;17.00;99.90;;;;;;5072113;28;20224;-52
2022/05/03 06:45:37;;;;;;;8.50;7.57;;;16.60;99.90;;;;;;5072404;28;20201;-51
2022/05/03 06:48:06;;;;;;;11.88;7.43;;;16.30;99.90;;;;;;5072660;28;20209;-51
2022/05/03 06:50:35;;;;;;;9.55;7.95;;;16.10;99.90;;;;;;5072386;28;20205;-51
2022/05/03 06:53:03;;;;;;;8.30;7.50;;;16.40;99.90;;;;;;5071772;28;20208;-51
2022/05/03 06:55:31;;;;;;;9.27;7.13;;;17.20;99.90;;;;;;5071594;28;20208;-51
2022/05/03 06:57:59;;;;;;;8.00;7.18;;;17.80;99.90;;;;;;5072383;28;20259;-51
2022/05/03 07:00:28;;;;;;;9.15;7.20;;;18.10;99.90;;;;;;5072940;28;20208;-51
2022/05/03 07:02:57;;;;;;;8.85;7.57;;;18.30;99.90;;;;;;5071959;28;20221;-52
2022/05/03 07:05:25;;;;;;;9.82;6.72;;;18.40;99.90;;;;;;5072168;28;20213;-51
2022/05/03 07:07:53;;;;;;;8.20;7.28;;;18.90;99.30;;;;;;5072761;28;20225;-51
2022/05/03 07:10:22;;;;;;;8.57;7.38;;;19.10;98.80;;;;;;5072205;28;20204;-52
2022/05/03 07:12:50;;;;;;;9.98;7.57;;;19.10;99.20;;;;;;5072128;28;20213;-52
2022/05/03 07:15:18;;;;;;;9.32;7.95;;;19.00;98.60;;;;;;5072304;28;20209;-52
2022/05/03 07:23:19;;;;;;;7.80;6.45;;;19.90;98.80;;;;;;5071815;28;20224;-51
2022/05/03 07:25:47;;;;;;;9.77;7.78;;;20.00;98.30;;;;;;5072033;28;20204;-51
2022/05/03 07:28:15;;;;;;;13.27;8.30;;;20.00;98.70;;;;;;5072060;28;20266;-52
2022/05/03 07:30:43;;;;;;;9.45;7.45;;;19.90;97.40;;;;;;5071170;28;20266;-51
2022/05/03 07:33:13;;;;;;;7.85;7.05;;;19.40;97.40;;;;;;5071656;28;20239;-51
2022/05/03 07:35:41;;;;;;;10.40;7.45;;;18.80;97.40;;;;;;5072139;28;20208;-51
2022/05/03 07:38:09;;;;;;;8.18;7.25;;;18.30;98.10;;;;;;5071703;28;20205;-51
2022/05/03 07:40:38;;;;;;;9.57;7.20;;;17.90;97.60;;;;;;5072175;28;20207;-51
2022/05/03 07:43:06;;;;;;;8.68;7.60;;;17.60;98.70;;;;;;5070874;28;20908;-52
2022/05/03 07:45:34;;;;;;;8.65;7.43;;;17.90;98.40;;;;;;5071608;28;20197;-52
2022/05/03 07:48:04;;;;;;;8.35;7.43;;;18.60;98.20;;;;;;5071836;28;20208;-51
2022/05/03 07:50:34;;;;;;;9.82;7.50;;;19.10;98.00;;;;;;5069792;28;20204;-52
2022/05/03 07:53:02;;;;;;;9.18;8.25;;;19.40;97.60;;;;;;5052765;28;20255;-51
2022/05/03 07:55:30;;;;;;;9.55;8.52;;;19.60;97.20;;;;;;5051243;28;20205;-51
2022/05/03 07:57:58;;;;;;;8.95;7.95;;;19.60;95.70;;;;;;5060809;28;20819;-52
2022/05/03 08:00:27;;;;;;;10.50;7.80;;;19.60;96.10;;;;;;5071216;28;20209;-51
2022/05/03 08:02:55;;;;;;;11.23;8.05;;;19.50;95.70;;;;;;5070867;28;20262;-52
2022/05/03 08:05:23;;;;;;;8.63;7.80;;;19.40;96.20;;;;;;5071265;28;20228;-52
2022/05/03 08:07:53;;;;;;;8.65;7.75;;;19.40;95.60;;;;;;5071012;28;20800;-51
2022/05/03 08:10:21;;;;;;;11.45;8.20;;;19.30;96.70;;;;;;5071076;28;20250;-52
2022/05/03 08:12:51;;;;;;;9.82;7.78;;;19.20;96.10;;;;;;5071133;28;20213;-51
2022/05/03 08:15:20;;;;;;;10.55;8.93;;;19.40;97.10;;;;;;5071153;28;20209;-51
2022/05/03 08:17:48;;;;;;;11.38;8.23;;;19.80;96.40;;;;;;5069965;28;20274;-51
2022/05/03 08:20:17;;;;;;;10.02;8.38;;;19.70;95.70;;;;;;5071062;28;20274;-51
2022/05/03 08:22:46;;;;;;;12.15;9.15;;;19.30;95.10;;;;;;5070791;28;20212;-51
2022/05/03 08:25:16;;;;;;;10.85;9.75;;;19.00;95.10;;;;;;5053886;28;20736;-52
2022/05/03 08:27:44;;;;;;;12.57;11.25;;;18.90;95.80;;;;;;5068318;28;20430;-52
2022/05/03 08:30:13;;;;;;;12.82;10.75;;;18.70;94.70;;;;;;5070726;28;20226;-52
2022/05/03 08:32:41;;;;;;;13.90;10.95;;;18.60;95.50;;;;;;5070257;28;20224;-52
2022/05/03 08:35:09;;;;;;;12.43;10.38;;;18.30;95.30;;;;;;5070491;28;20641;-52
2022/05/03 08:43:10;;;;;;;14.50;10.32;;;18.50;95.70;;;;;;5069906;28;20209;-52
2022/05/03 08:45:38;;;;;;;11.02;9.93;;;18.60;96.70;;;;;;5070459;28;20780;-52
2022/05/03 08:48:08;;;;;;;10.93;9.82;;;18.60;95.90;;;;;;5071060;28;20224;-51
2022/05/03 08:50:36;;;;;;;11.82;9.95;;;18.70;95.80;;;;;;5071109;28;20212;-52
2022/05/03 08:53:06;;;;;;;10.90;9.80;;;18.60;95.90;;;;;;5070258;28;20616;-52
2022/05/03 08:55:36;;;;;;;15.65;10.70;;;18.50;96.00;;;;;;5055018;28;20228;-51
2022/05/03 08:58:04;;;;;;;12.10;9.80;;;18.30;95.90;;;;;;5070446;28;20204;-51
2022/05/03 09:00:33;;;;;;;11.98;10.70;;;18.50;95.70;;;;;;5069431;28;20205;-51
2022/05/03 09:03:03;;;;;;;10.98;9.85;;;18.30;95.40;;;;;;5069969;28;20582;-51
2022/05/03 09:05:31;;;;;;;11.05;9.43;;;18.30;96.10;;;;;;5070367;28;20225;-52
2022/05/03 09:08:01;;;;;;;13.07;9.50;;;18.20;95.90;;;;;;5070627;28;20735;-51
2022/05/03 09:10:32;;;;;;;12.55;10.27;;;18.20;96.10;;;;;;5070322;28;20677;-52
2022/05/03 09:13:24;;;;;;;13.35;10.85;;;18.20;96.10;;;;;;5070451;28;20299;-52
2022/05/03 09:15:55;;;;;;;9.93;8.93;;;18.20;96.20;;;;;;5070546;28;20232;-52
2022/05/03 09:18:26;;;;;;;11.73;9.73;;;18.40;96.30;;;;;;5070770;28;20277;-52
2022/05/03 09:23:48;;;;;;;12.38;9.98;;;18.80;96.60;;;;;;5073877;28;20262;-52
2022/05/03 09:26:19;;;;;;;14.38;10.65;;;18.90;96.40;;;;;;5074744;28;20224;-51
2022/05/03 09:28:50;;;;;;;14.35;9.95;;;19.00;94.90;;;;;;5074231;28;20631;-51
2022/05/03 09:31:32;;;;;;;10.45;9.45;;;18.90;95.30;;;;;;5074129;28;20212;-52
2022/05/03 09:34:02;;;;;;;11.77;10.05;;;18.80;95.40;;;;;;5073955;28;20292;-52
2022/05/03 09:36:43;;;;;;;11.70;9.48;;;19.10;95.70;;;;;;5074386;28;20220;-51
2022/05/03 09:39:32;;;;;;;14.68;11.10;;;19.40;95.80;;;;;;5073536;28;20578;-52
2022/05/03 09:42:09;;;;;;;13.27;10.02;;;19.40;94.40;;;;;;5073805;28;20855;-52
2022/05/03 09:44:52;;;;;;;14.10;10.30;;;19.40;94.40;;;;;;5073640;28;20205;-52
2022/05/03 09:47:22;;;;;;;12.23;10.50;;;19.30;94.60;;;;;;5074279;28;20224;-52
2022/05/03 09:49:50;;;;;;;10.98;9.50;;;19.30;95.10;;;;;;5073809;28;20215;-52
2022/05/03 09:52:28;;;;;;;12.27;9.93;;;19.30;95.30;;;;;;5073679;28;20652;-52
2022/05/03 09:55:03;;;;;;;15.52;11.20;;;19.50;94.40;;;;;;5073858;28;20201;-52
2022/05/03 09:57:34;;;;;;;13.13;11.20;;;19.50;93.60;;;;;;5073751;28;20738;-51
2022/05/03 10:00:05;;;;;;;13.73;11.13;;;19.50;93.90;;;;;;5073626;28;20193;-52
2022/05/03 10:02:34;;;;;;;12.40;11.07;;;19.50;93.80;;;;;;5073007;28;20258;-52
2022/05/03 10:05:02;;;;;;;11.90;10.30;;;19.60;93.80;;;;;;5072215;28;20732;-52
2022/05/03 10:07:30;;;;;;;13.93;10.63;;;19.70;95.00;;;;;;5074119;28;20587;-52
2022/05/03 10:09:58;;;;;;;12.90;11.02;;;19.90;93.90;;;;;;5073227;28;20255;-52
2022/05/03 10:12:26;;;;;;;11.75;10.25;;;19.80;93.60;;;;;;5073081;28;20670;-52
2022/05/03 10:14:55;;;;;;;12.88;10.10;;;19.80;94.20;;;;;;5073510;28;20258;-52
2022/05/03 10:20:40;;;;;;;14.48;11.10;;;19.70;93.60;;;;;;5073688;28;20189;-52
2022/05/03 10:23:20;;;;;;;13.02;10.05;;;19.70;93.60;;;;;;5073137;28;20205;-52
2022/05/03 10:25:56;;;;;;;12.43;10.77;;;19.70;94.20;;;;;;5073556;28;20220;-52
2022/05/03 10:28:24;;;;;;;12.02;10.82;;;19.70;94.30;;;;;;5073066;28;20254;-52
2022/05/03 10:31:09;;;;;;;15.02;10.90;;;19.80;94.40;;;;;;5071618;28;20208;-52
2022/05/03 10:33:40;;;;;;;13.70;10.45;;;19.70;92.90;;;;;;5072938;28;20217;-52
2022/05/03 10:36:49;;;;;;;12.18;10.63;;;19.70;93.50;;;;;;5073281;28;20231;-52
2022/05/03 10:39:25;;;;;;;15.43;12.05;;;20.00;94.00;;;;;;5061084;28;20270;-52
2022/05/03 10:41:58;;;;;;;12.80;11.48;;;20.10;93.20;;;;;;5072667;28;20258;-52
2022/05/03 10:44:46;;;;;;;12.80;10.55;;;20.10;93.80;;;;;;5072621;28;20344;-52
2022/05/03 10:47:20;;;;;;;13.05;10.45;;;20.20;93.30;;;;;;5053162;28;20990;-52
2022/05/03 10:50:28;;;;;;;11.52;10.38;;;20.20;93.80;;;;;;5052818;28;20671;-52
2022/05/03 10:53:28;;;;;;;12.52;11.27;;;20.40;93.80;;;;;;5057633;28;20215;-53
2022/05/03 10:56:18;;;;;;;12.68;10.30;;;20.60;94.00;;;;;;5072846;28;20639;-52
2022/05/03 10:59:03;;;;;;;16.35;10.07;;;20.50;93.70;;;;;;5067697;28;20779;-52
2022/05/03 11:01:31;;;;;;;14.15;10.10;;;20.60;94.90;;;;;;5076788;28;20209;-52
2022/05/03 11:04:13;;;;;;;11.43;10.18;;;20.90;94.20;;;;;;5074254;28;20225;-52
2022/05/03 11:06:46;;;;;;;14.50;10.77;;;20.60;94.00;;;;;;5073174;28;20232;-52
2022/05/03 11:09:16;;;;;;;15.15;11.30;;;20.30;93.90;;;;;;5072816;28;20646;-52
2022/05/03 11:11:58;;;;;;;12.68;10.35;;;20.10;94.10;;;;;;5072275;28;20213;-52
2022/05/03 11:15:04;;;;;;;12.23;10.57;;;20.10;94.50;;;;;;5071612;28;20201;-52
2022/05/03 11:17:32;;;;;;;13.27;11.95;;;20.00;94.30;;;;;;5072331;28;20229;-51
2022/05/03 11:20:00;;;;;;;13.32;10.68;;;20.10;93.70;;;;;;5072526;28;20603;-52
2022/05/03 11:22:32;;;;;;;14.32;11.43;;;20.10;94.40;;;;;;5066511;28;20209;-52
2022/05/03 11:25:12;;;;;;;12.23;11.02;;;20.30;94.70;;;;;;5060595;28;20245;-52
2022/05/03 11:27:41;;;;;;;11.80;10.60;;;20.50;94.20;;;;;;5051741;28;20225;-51
2022/05/03 11:30:16;;;;;;;12.93;11.57;;;20.60;94.20;;;;;;5052104;28;20209;-51
2022/05/03 11:32:44;;;;;;;12.07;10.82;;;20.70;94.50;;;;;;5050893;28;20292;-52
2022/05/03 11:35:15;;;;;;;14.07;11.32;;;20.90;94.90;;;;;;5052181;28;20616;-52
2022/05/03 11:37:52;;;;;;;14.93;12.07;;;20.70;93.30;;;;;;5071287;28;20250;-52
2022/05/03 11:40:22;;;;;;;12.23;10.80;;;20.60;93.90;;;;;;5052088;28;20198;-51
2022/05/03 11:42:51;;;;;;;14.70;11.38;;;20.70;94.30;;;;;;5050950;28;20254;-52
2022/05/03 11:45:20;;;;;;;13.25;11.68;;;20.90;95.80;;;;;;5055309;28;20315;-51
2022/05/03 11:47:50;;;;;;;15.63;11.25;;;20.80;94.10;;;;;;5070484;28;20224;-51
2022/05/03 11:56:07;;;;;;;13.23;11.82;;;20.60;95.10;;;;;;5070827;28;20286;-51
2022/05/03 11:58:39;;;;;;;12.90;11.32;;;20.60;96.00;;;;;;5071038;28;20205;-51
2022/05/03 12:01:15;;;;;;;13.27;11.20;;;20.40;94.20;;;;;;5070963;28;20204;-52
2022/05/03 12:03:48;;;;;;;13.38;11.25;;;20.50;95.40;;;;;;5070365;28;20209;-52
2022/05/03 12:06:16;;;;;;;12.98;11.52;;;20.70;95.40;;;;;;5070221;28;20224;-52
2022/05/03 12:08:47;;;;;;;15.65;12.32;;;20.60;94.50;;;;;;5070335;28;20201;-51
2022/05/03 12:11:24;;;;;;;16.30;12.30;;;20.50;94.30;;;;;;5070711;28;20243;-52
2022/05/03 12:13:53;;;;;;;12.52;11.20;;;20.60;95.10;;;;;;5070477;28;20274;-52
2022/05/03 12:16:23;;;;;;;15.02;11.70;;;20.80;95.70;;;;;;5070649;28;20228;-51
2022/05/03 12:18:53;;;;;;;15.70;12.00;;;20.90;93.80;;;;;;5070314;28;20817;-51
2022/05/03 12:21:28;;;;;;;13.73;12.32;;;20.60;93.90;;;;;;5070485;28;20212;-51
2022/05/03 12:24:02;;;;;;;16.73;12.65;;;20.30;93.30;;;;;;5069799;28;20643;-53
2022/05/03 12:26:40;;;;;;;16.38;12.35;;;20.20;94.10;;;;;;5070357;28;20235;-52
2022/05/03 12:29:10;;;;;;;13.98;11.70;;;20.10;94.20;;;;;;5067784;28;20234;-52
2022/05/03 12:31:39;;;;;;;12.73;11.38;;;20.00;94.10;;;;;;5059647;28;20216;-51
2022/05/03 12:34:11;;;;;;;12.77;11.38;;;19.90;94.30;;;;;;5070580;28;20201;-52
2022/05/03 12:36:41;;;;;;;14.68;11.68;;;19.90;94.20;;;;;;5069985;28;20274;-52
2022/05/03 12:39:16;;;;;;;13.13;11.73;;;19.70;93.60;;;;;;5069542;28;20213;-52
2022/05/03 12:41:56;;;;;;;14.02;11.63;;;19.60;93.80;;;;;;5069913;28;20195;-51
2022/05/03 12:44:25;;;;;;;13.32;10.80;;;19.70;94.10;;;;;;5070411;28;20212;-52
2022/05/03 12:47:02;;;;;;;15.27;11.00;;;19.70;94.30;;;;;;5069806;28;20608;-51
2022/05/03 12:49:30;;;;;;;15.57;11.57;;;19.70;94.60;;;;;;5070819;28;20240;-52
2022/05/03 12:51:59;;;;;;;12.35;11.05;;;19.80;94.10;;;;;;5069164;28;20649;-52
2022/05/03 12:54:32;;;;;;;12.77;11.32;;;19.70;93.80;;;;;;5069332;28;20250;-51
2022/05/03 12:59:49;;;;;;;13.60;11.95;;;19.70;94.20;;;;;;5070037;28;20257;-53
2022/05/03 13:02:18;;;;;;;12.98;11.35;;;19.60;93.30;;;;;;5049421;28;20190;-52
2022/05/03 13:04:47;;;;;;;13.05;10.93;;;19.60;94.20;;;;;;5049471;28;20209;-52
2022/05/03 13:07:15;;;;;;;14.48;11.73;;;19.50;93.90;;;;;;5049954;28;20677;-52
2022/05/03 13:09:44;;;;;;;13.75;12.02;;;19.50;94.60;;;;;;5061814;28;20204;-52
2022/05/03 13:12:13;;;;;;;12.95;10.57;;;19.60;94.50;;;;;;5070228;28;20284;-51
2022/05/03 13:14:41;;;;;;;12.38;11.15;;;19.60;94.80;;;;;;5070267;28;20209;-52
2022/05/03 13:17:10;;;;;;;13.23;10.60;;;19.60;93.40;;;;;;5069915;28;20229;-51
2022/05/03 13:19:38;;;;;;;12.07;10.80;;;19.50;93.30;;;;;;5070110;28;20204;-52
2022/05/03 13:22:06;;;;;;;15.25;11.63;;;19.50;93.30;;;;;;5069851;28;20250;-52
2022/05/03 13:24:35;;;;;;;12.43;10.90;;;19.60;93.00;;;;;;5069332;28;20717;-51
2022/05/03 13:27:06;;;;;;;10.95;9.85;;;19.40;92.90;;;;;;5070422;28;20228;-52